Time;durP1;ratioP1;P1;durP2;ratioP2;P2;SDS_P1;SDS_P2;PMS_P1;PMS_P2;Temp;Humidity;BMP_temperature;BMP_pressure;BME280_temperature;BME280_humidity;BME280_pressure;Samples;Min_cycle;Max_cycle;Signal;HPM_P1;HPM_P2
2022/05/09 00:02:03;;;;;;;;;;;18.90;58.90;;;;;;5052325;28;868;-71
2022/05/09 00:04:28;;;;;;;;;;;18.90;59.00;;;;;;5034821;28;817;-70
2022/05/09 00:06:55;;;;;;;;;;;18.90;59.00;;;;;;5052435;28;857;-71
2022/05/09 00:09:21;;;;;;;;;;;18.90;59.00;;;;;;5052265;28;918;-70
2022/05/09 00:11:46;;;;;;;;;;;18.90;59.00;;;;;;5052352;28;1894;-71
2022/05/09 00:14:12;;;;;;;;;;;18.90;59.00;;;;;;5050402;28;1971;-70
2022/05/09 00:16:37;;;;;;;;;;;18.90;59.00;;;;;;5060208;28;1100;-70
2022/05/09 00:19:03;;;;;;;;;;;18.90;59.10;;;;;;5037377;28;1177;-70
2022/05/09 00:21:33;;;;;;;;;;;18.90;59.00;;;;;;5044550;28;1232;-71
2022/05/09 00:23:58;;;;;;;;;;;18.90;59.10;;;;;;5051934;28;1975;-71
2022/05/09 00:26:27;;;;;;;;;;;18.90;59.00;;;;;;5041973;28;1099;-69
2022/05/09 00:28:53;;;;;;;;;;;18.90;59.10;;;;;;5013769;28;1684;-70
2022/05/09 00:31:18;;;;;;;;;;;18.90;59.10;;;;;;5054128;28;1906;-71
2022/05/09 00:33:44;;;;;;;;;;;18.90;59.10;;;;;;5050106;28;1150;-70
2022/05/09 00:36:09;;;;;;;;;;;18.90;59.10;;;;;;5049749;28;1244;-71
2022/05/09 00:38:35;;;;;;;;;;;18.90;59.10;;;;;;5045539;28;1266;-71
2022/05/09 00:43:44;;;;;;;;;;;18.90;59.10;;;;;;5047500;28;1069;-72
2022/05/09 00:46:09;;;;;;;;;;;18.90;59.10;;;;;;5052284;28;1299;-72
2022/05/09 00:48:36;;;;;;;;;;;18.90;59.20;;;;;;5044759;28;1272;-71
2022/05/09 00:51:01;;;;;;;;;;;18.90;59.20;;;;;;5044491;28;1894;-69
2022/05/09 00:53:26;;;;;;;;;;;18.90;59.20;;;;;;5053550;28;1251;-69
2022/05/09 00:55:53;;;;;;;;;;;18.90;59.20;;;;;;5051437;28;1176;-68
2022/05/09 00:58:26;;;;;;;;;;;18.90;59.20;;;;;;5052132;28;1245;-70
2022/05/09 01:00:52;;;;;;;;;;;18.90;59.20;;;;;;5039555;28;1339;-70
2022/05/09 01:03:21;;;;;;;;;;;18.90;59.20;;;;;;5051813;28;1216;-70
2022/05/09 01:05:50;;;;;;;;;;;18.90;59.20;;;;;;5050779;28;1263;-70
2022/05/09 01:08:19;;;;;;;;;;;18.90;59.20;;;;;;5035560;28;1173;-70
2022/05/09 01:10:44;;;;;;;;;;;18.90;59.30;;;;;;5033889;28;1890;-69
2022/05/09 01:13:10;;;;;;;;;;;18.90;59.20;;;;;;5050904;28;969;-69
2022/05/09 01:15:35;;;;;;;;;;;18.90;59.30;;;;;;5050931;28;931;-69
2022/05/09 01:18:01;;;;;;;;;;;18.90;59.30;;;;;;5040901;28;1272;-69
2022/05/09 01:20:26;;;;;;;;;;;18.90;59.30;;;;;;5053800;28;788;-69
2022/05/09 01:22:55;;;;;;;;;;;18.90;59.30;;;;;;5053990;28;1038;-69
2022/05/09 01:25:21;;;;;;;;;;;18.90;59.30;;;;;;5037110;28;1303;-69
2022/05/09 01:27:47;;;;;;;;;;;18.90;59.30;;;;;;5053996;28;1191;-69
2022/05/09 01:30:18;;;;;;;;;;;18.90;59.40;;;;;;5054868;28;838;-69
2022/05/09 01:32:55;;;;;;;;;;;18.90;59.40;;;;;;5053720;28;1914;-69
2022/05/09 01:35:24;;;;;;;;;;;18.90;59.40;;;;;;5054127;28;1101;-69
2022/05/09 01:37:53;;;;;;;;;;;18.90;59.40;;;;;;5054806;28;1204;-69
2022/05/09 01:40:18;;;;;;;;;;;18.90;59.40;;;;;;5053608;28;812;-69
2022/05/09 01:42:44;;;;;;;;;;;18.90;59.40;;;;;;5054817;28;979;-68
2022/05/09 01:45:10;;;;;;;;;;;18.90;59.40;;;;;;5054876;28;1034;-69
2022/05/09 01:50:19;;;;;;;;;;;18.90;59.40;;;;;;5053542;28;710;-70
2022/05/09 01:52:44;;;;;;;;;;;18.90;59.40;;;;;;5054522;28;1959;-70
2022/05/09 01:55:10;;;;;;;;;;;18.90;59.50;;;;;;5036849;28;775;-70
2022/05/09 01:57:35;;;;;;;;;;;18.90;59.50;;;;;;5053063;28;1180;-70
2022/05/09 02:00:04;;;;;;;;;;;18.90;59.50;;;;;;5053382;28;947;-71
2022/05/09 02:02:31;;;;;;;;;;;18.90;59.50;;;;;;5053360;28;884;-70
2022/05/09 02:04:56;;;;;;;;;;;18.90;59.50;;;;;;5053163;28;875;-70
2022/05/09 02:07:23;;;;;;;;;;;18.90;59.50;;;;;;5054320;28;1200;-70
2022/05/09 02:09:48;;;;;;;;;;;18.90;59.50;;;;;;5054117;28;951;-71
2022/05/09 02:12:14;;;;;;;;;;;18.90;59.50;;;;;;5053000;28;1894;-71
2022/05/09 02:14:40;;;;;;;;;;;18.90;59.50;;;;;;5053103;28;749;-71
2022/05/09 02:17:06;;;;;;;;;;;18.90;59.50;;;;;;5054315;28;1293;-70
2022/05/09 02:19:31;;;;;;;;;;;18.90;59.60;;;;;;5035383;28;1223;-70
2022/05/09 02:21:57;;;;;;;;;;;18.90;59.60;;;;;;5033704;28;817;-71
2022/05/09 02:24:22;;;;;;;;;;;18.90;59.60;;;;;;5034305;28;833;-71
2022/05/09 02:26:48;;;;;;;;;;;18.90;59.60;;;;;;5032825;28;877;-71
2022/05/09 02:29:13;;;;;;;;;;;18.90;59.60;;;;;;5015988;28;1339;-71
2022/05/09 02:31:39;;;;;;;;;;;18.90;59.60;;;;;;5033784;28;1956;-71
2022/05/09 02:34:04;;;;;;;;;;;18.90;59.60;;;;;;5033804;28;916;-71
2022/05/09 02:36:30;;;;;;;;;;;18.90;59.60;;;;;;5032851;28;971;-71
2022/05/09 02:38:55;;;;;;;;;;;18.90;59.60;;;;;;5033605;28;1197;-71
2022/05/09 02:41:22;;;;;;;;;;;18.90;59.60;;;;;;5033761;28;798;-71
2022/05/09 02:43:47;;;;;;;;;;;18.90;59.60;;;;;;5016111;28;1768;-72
2022/05/09 02:46:13;;;;;;;;;;;18.90;59.60;;;;;;5032384;28;994;-69
2022/05/09 02:48:38;;;;;;;;;;;18.90;59.70;;;;;;5032389;28;1188;-69
2022/05/09 02:51:05;;;;;;;;;;;18.90;59.70;;;;;;5032189;28;1952;-69
2022/05/09 02:53:30;;;;;;;;;;;18.90;59.70;;;;;;5032480;28;891;-70
2022/05/09 02:55:55;;;;;;;;;;;18.90;59.70;;;;;;5033640;28;917;-71
2022/05/09 02:58:21;;;;;;;;;;;18.90;59.70;;;;;;5065606;28;1269;-70
2022/05/09 03:00:46;;;;;;;;;;;18.90;59.70;;;;;;5073159;28;825;-71
2022/05/09 03:05:56;;;;;;;;;;;18.90;59.70;;;;;;5073265;28;705;-70
2022/05/09 03:08:22;;;;;;;;;;;18.90;59.70;;;;;;5055501;28;1298;-71
2022/05/09 03:10:47;;;;;;;;;;;18.90;59.70;;;;;;5072939;28;1898;-71
2022/05/09 03:13:12;;;;;;;;;;;18.90;59.70;;;;;;5073120;28;892;-72
2022/05/09 03:15:40;;;;;;;;;;;18.90;59.70;;;;;;5073400;28;829;-71
2022/05/09 03:18:06;;;;;;;;;;;18.90;59.70;;;;;;5066697;28;1291;-71
2022/05/09 03:20:31;;;;;;;;;;;18.90;59.80;;;;;;5052863;28;864;-73
2022/05/09 03:22:57;;;;;;;;;;;18.90;59.80;;;;;;5053029;28;1129;-70
2022/05/09 03:25:22;;;;;;;;;;;18.90;59.80;;;;;;5035256;28;868;-70
2022/05/09 03:27:47;;;;;;;;;;;18.90;59.80;;;;;;5034977;28;1267;-70
2022/05/09 03:30:13;;;;;;;;;;;18.90;59.80;;;;;;5056809;22;3886;-69
2022/05/09 03:32:39;;;;;;;;;;;18.90;59.80;;;;;;5053843;28;2356;-68
2022/05/09 03:35:05;;;;;;;;;;;18.90;59.80;;;;;;5064358;28;1146;-69
2022/05/09 03:37:30;;;;;;;;;;;18.90;59.80;;;;;;5054969;28;1082;-66
2022/05/09 03:39:56;;;;;;;;;;;18.90;59.80;;;;;;5064784;28;1295;-67
2022/05/09 03:42:21;;;;;;;;;;;18.90;59.80;;;;;;5066554;28;1050;-67
2022/05/09 03:44:47;;;;;;;;;;;18.90;59.90;;;;;;5054685;28;821;-68
2022/05/09 03:47:12;;;;;;;;;;;18.90;59.90;;;;;;5072763;28;1070;-68
2022/05/09 03:49:38;;;;;;;;;;;18.90;59.90;;;;;;5072581;28;1211;-69
2022/05/09 03:52:03;;;;;;;;;;;18.90;59.90;;;;;;5075530;28;1961;-68
2022/05/09 03:54:29;;;;;;;;;;;18.90;59.90;;;;;;5075950;28;1184;-68
2022/05/09 03:56:54;;;;;;;;;;;18.90;59.90;;;;;;5074121;28;1049;-68
2022/05/09 03:59:20;;;;;;;;;;;18.90;59.90;;;;;;5064757;28;1347;-67
2022/05/09 04:01:46;;;;;;;;;;;18.90;59.90;;;;;;5055491;28;944;-68
2022/05/09 04:04:11;;;;;;;;;;;18.90;59.90;;;;;;5056819;28;836;-67
2022/05/09 04:06:37;;;;;;;;;;;18.90;59.90;;;;;;5056622;28;895;-67
2022/05/09 04:09:02;;;;;;;;;;;18.90;59.90;;;;;;5038797;28;1323;-68
2022/05/09 04:11:28;;;;;;;;;;;18.90;60.00;;;;;;5021915;28;1957;-68
2022/05/09 04:13:53;;;;;;;;;;;18.90;59.90;;;;;;5055223;28;1002;-68
2022/05/09 04:19:02;;;;;;;;;;;18.90;59.90;;;;;;5070451;28;1386;-68
2022/05/09 04:21:28;;;;;;;;;;;18.90;60.00;;;;;;5076112;28;822;-67
2022/05/09 04:23:56;;;;;;;;;;;18.90;59.90;;;;;;5076422;28;714;-68
2022/05/09 04:26:24;;;;;;;;;;;18.90;60.00;;;;;;5076256;28;899;-68
2022/05/09 04:28:50;;;;;;;;;;;18.90;60.00;;;;;;5058219;28;1220;-69
2022/05/09 04:31:15;;;;;;;;;;;18.90;60.00;;;;;;5075921;28;1913;-68
2022/05/09 04:33:41;;;;;;;;;;;18.90;60.00;;;;;;5076187;28;832;-68
2022/05/09 04:36:07;;;;;;;;;;;18.90;60.00;;;;;;5076060;28;899;-68
2022/05/09 04:38:32;;;;;;;;;;;18.90;60.00;;;;;;5075962;28;1219;-69
2022/05/09 04:40:58;;;;;;;;;;;18.90;60.00;;;;;;5075759;28;935;-68
2022/05/09 04:43:24;;;;;;;;;;;18.90;60.00;;;;;;5076047;28;943;-68
2022/05/09 04:45:50;;;;;;;;;;;18.90;60.10;;;;;;5046622;28;2245;-68
2022/05/09 04:48:16;;;;;;;;;;;18.90;60.00;;;;;;5055070;28;1744;-68
2022/05/09 04:50:41;;;;;;;;;;;18.90;60.10;;;;;;5037507;28;1228;-67
2022/05/09 04:53:07;;;;;;;;;;;18.90;60.10;;;;;;5055569;28;1898;-67
2022/05/09 04:55:32;;;;;;;;;;;18.80;60.00;;;;;;5056303;28;693;-67
2022/05/09 04:57:59;;;;;;;;;;;18.90;60.10;;;;;;5069671;28;1257;-67
2022/05/09 05:00:25;;;;;;;;;;;18.90;60.10;;;;;;5054769;28;2245;-69
2022/05/09 05:02:51;;;;;;;;;;;18.90;60.10;;;;;;5019524;28;1927;-69
2022/05/09 05:05:16;;;;;;;;;;;18.90;60.10;;;;;;5037716;28;1070;-68
2022/05/09 05:07:42;;;;;;;;;;;18.90;60.10;;;;;;5037569;28;1100;-68
2022/05/09 05:10:08;;;;;;;;;;;18.90;60.10;;;;;;5037463;28;1216;-68
2022/05/09 05:12:33;;;;;;;;;;;18.90;60.10;;;;;;5043272;28;1906;-68
2022/05/09 05:15:00;;;;;;;;;;;18.90;60.10;;;;;;5052168;28;1087;-67
2022/05/09 05:17:25;;;;;;;;;;;18.90;60.10;;;;;;5054794;28;1067;-68
2022/05/09 05:19:51;;;;;;;;;;;18.90;60.10;;;;;;5056240;28;1196;-67
2022/05/09 05:22:16;;;;;;;;;;;18.90;60.10;;;;;;5056331;28;1314;-69
2022/05/09 05:24:44;;;;;;;;;;;18.90;60.10;;;;;;5074868;28;855;-69
2022/05/09 05:27:10;;;;;;;;;;;18.80;60.10;;;;;;5056507;28;1418;-69
2022/05/09 05:29:35;;;;;;;;;;;18.90;60.20;;;;;;5056043;28;1185;-69
2022/05/09 05:32:01;;;;;;;;;;;18.90;60.20;;;;;;5074217;28;1913;-71
2022/05/09 05:34:26;;;;;;;;;;;18.90;60.20;;;;;;5056198;28;1043;-68
2022/05/09 05:36:52;;;;;;;;;;;18.80;60.90;;;;;;5074248;28;854;-68
2022/05/09 05:39:17;;;;;;;;;;;18.90;60.20;;;;;;5073686;28;1222;-69
2022/05/09 05:41:43;;;;;;;;;;;18.80;60.20;;;;;;5056188;28;860;-69
2022/05/09 05:44:11;;;;;;;;;;;18.80;60.20;;;;;;5055839;28;1046;-69
2022/05/09 05:46:43;;;;;;;;;;;18.90;60.20;;;;;;5056602;28;891;-69
2022/05/09 05:49:09;;;;;;;;;;;18.90;60.20;;;;;;5055683;28;1317;-69
2022/05/09 05:51:36;;;;;;;;;;;18.90;60.20;;;;;;5040376;28;1967;-67
2022/05/09 05:54:02;;;;;;;;;;;18.90;60.20;;;;;;5052130;28;1231;-67
2022/05/09 05:56:27;;;;;;;;;;;18.90;60.30;;;;;;5053071;28;1290;-68
2022/05/09 05:58:53;;;;;;;;;;;18.90;60.20;;;;;;5072924;28;1198;-68
2022/05/09 06:01:18;;;;;;;;;;;18.80;60.20;;;;;;5072761;28;963;-69
2022/05/09 06:03:44;;;;;;;;;;;18.90;60.30;;;;;;5073162;28;836;-66
2022/05/09 06:06:09;;;;;;;;;;;18.90;60.30;;;;;;5055073;28;1026;-68
2022/05/09 06:08:38;;;;;;;;;;;18.90;60.30;;;;;;5071762;28;1318;-68
2022/05/09 06:11:06;;;;;;;;;;;18.80;60.30;;;;;;5034701;28;1965;-68
2022/05/09 06:13:32;;;;;;;;;;;18.90;60.30;;;;;;5034445;28;849;-68
2022/05/09 06:15:57;;;;;;;;;;;18.90;60.30;;;;;;5034833;28;1027;-68
2022/05/09 06:18:23;;;;;;;;;;;18.90;60.30;;;;;;5071076;28;1263;-68
2022/05/09 06:20:48;;;;;;;;;;;18.90;60.30;;;;;;5074447;28;1298;-68
2022/05/09 06:23:14;;;;;;;;;;;18.90;60.30;;;;;;5072486;28;829;-68
2022/05/09 06:25:41;;;;;;;;;;;18.90;60.30;;;;;;5054876;28;812;-70
2022/05/09 06:28:06;;;;;;;;;;;18.90;60.30;;;;;;5072730;28;924;-71
2022/05/09 06:30:32;;;;;;;;;;;18.90;60.40;;;;;;5037362;28;2008;-70
2022/05/09 06:32:57;;;;;;;;;;;18.90;60.40;;;;;;5072644;28;1894;-69
2022/05/09 06:35:24;;;;;;;;;;;18.90;60.40;;;;;;5054345;28;805;-68
2022/05/09 06:37:55;;;;;;;;;;;18.90;60.40;;;;;;5072034;28;916;-70
2022/05/09 06:40:21;;;;;;;;;;;18.90;60.40;;;;;;5072066;28;1307;-71
2022/05/09 06:42:50;;;;;;;;;;;18.90;60.40;;;;;;5072634;28;967;-71
2022/05/09 06:45:16;;;;;;;;;;;18.90;60.40;;;;;;5068266;28;1027;-69
2022/05/09 06:47:45;;;;;;;;;;;18.90;60.40;;;;;;5052694;28;1062;-66
2022/05/09 06:50:10;;;;;;;;;;;18.90;60.40;;;;;;5032859;28;1306;-66
2022/05/09 06:52:36;;;;;;;;;;;18.90;61.20;;;;;;5049228;28;1898;-66
2022/05/09 06:55:02;;;;;;;;;;;18.90;60.40;;;;;;5052477;28;892;-69
2022/05/09 06:57:27;;;;;;;;;;;18.90;60.40;;;;;;5043577;28;1181;-70
2022/05/09 06:59:53;;;;;;;;;;;18.90;60.40;;;;;;5072121;28;1224;-69
2022/05/09 07:02:18;;;;;;;;;;;18.80;60.50;;;;;;5072446;28;962;-70
2022/05/09 07:04:43;;;;;;;;;;;18.90;60.40;;;;;;5072363;28;908;-70
2022/05/09 07:07:09;;;;;;;;;;;18.80;60.40;;;;;;5072494;28;920;-69
2022/05/09 07:09:34;;;;;;;;;;;18.90;60.40;;;;;;5072144;28;1163;-70
2022/05/09 07:12:00;;;;;;;;;;;18.90;60.50;;;;;;5072193;28;1901;-69
2022/05/09 07:14:25;;;;;;;;;;;18.80;60.40;;;;;;5072708;28;1025;-69
2022/05/09 07:16:51;;;;;;;;;;;18.80;60.40;;;;;;5072309;28;887;-69
2022/05/09 07:19:16;;;;;;;;;;;18.80;60.40;;;;;;5071321;28;1339;-69
2022/05/09 07:21:42;;;;;;;;;;;18.90;60.50;;;;;;5072070;28;931;-68
2022/05/09 07:24:08;;;;;;;;;;;18.90;60.50;;;;;;5073208;28;781;-68
2022/05/09 07:26:33;;;;;;;;;;;18.80;60.50;;;;;;5071533;28;1030;-68
2022/05/09 07:28:59;;;;;;;;;;;18.80;60.50;;;;;;5072945;28;1203;-69
2022/05/09 07:31:24;;;;;;;;;;;18.90;60.50;;;;;;5055033;28;1969;-68
2022/05/09 07:33:50;;;;;;;;;;;18.90;60.50;;;;;;5055085;28;869;-68
2022/05/09 07:36:15;;;;;;;;;;;18.90;60.50;;;;;;5072824;28;912;-68
2022/05/09 07:38:42;;;;;;;;;;;18.90;61.30;;;;;;5072869;28;1259;-68
2022/05/09 07:41:07;;;;;;;;;;;18.90;60.50;;;;;;5054947;28;888;-67
2022/05/09 07:43:33;;;;;;;;;;;18.90;60.60;;;;;;5073009;28;817;-68
2022/05/09 07:45:58;;;;;;;;;;;18.90;60.60;;;;;;5072865;28;904;-68
2022/05/09 07:48:24;;;;;;;;;;;18.90;60.60;;;;;;5054736;28;1200;-68
2022/05/09 07:50:49;;;;;;;;;;;18.90;60.60;;;;;;5072459;28;1018;-68
2022/05/09 07:53:22;;;;;;;;;;;18.90;60.60;;;;;;5072675;28;1910;-68
2022/05/09 07:55:47;;;;;;;;;;;18.90;60.60;;;;;;5072926;28;991;-68
2022/05/09 07:58:13;;;;;;;;;;;18.90;60.60;;;;;;5072668;28;1153;-67
2022/05/09 08:00:38;;;;;;;;;;;18.90;60.70;;;;;;5054489;28;1304;-68
2022/05/09 08:03:04;;;;;;;;;;;18.90;60.70;;;;;;5072502;28;990;-68
2022/05/09 08:05:30;;;;;;;;;;;18.90;60.70;;;;;;5054812;28;900;-67
2022/05/09 08:07:55;;;;;;;;;;;18.90;60.70;;;;;;5072564;28;1034;-67
2022/05/09 08:10:21;;;;;;;;;;;18.90;60.70;;;;;;5072322;28;1227;-68
2022/05/09 08:12:47;;;;;;;;;;;18.90;60.70;;;;;;5072556;28;1910;-68
2022/05/09 08:15:13;;;;;;;;;;;18.90;60.70;;;;;;5072745;28;836;-68
2022/05/09 08:17:38;;;;;;;;;;;18.90;60.70;;;;;;5054433;28;1242;-69
2022/05/09 08:20:04;;;;;;;;;;;18.80;60.60;;;;;;5065900;28;2183;-68
2022/05/09 08:22:31;;;;;;;;;;;18.90;60.70;;;;;;5030168;28;1409;-69
2022/05/09 08:25:04;;;;;;;;;;;18.90;60.80;;;;;;5044037;28;1273;-68
2022/05/09 08:27:29;;;;;;;;;;;18.90;60.70;;;;;;5052529;28;1071;-68
2022/05/09 08:29:56;;;;;;;;;;;18.90;60.70;;;;;;5052128;28;1224;-68
2022/05/09 08:32:31;;;;;;;;;;;18.90;60.80;;;;;;5034492;28;1910;-68
2022/05/09 08:34:56;;;;;;;;;;;18.90;60.80;;;;;;5034707;28;794;-68
2022/05/09 08:37:22;;;;;;;;;;;18.90;60.80;;;;;;5053687;28;1034;-69
2022/05/09 08:39:47;;;;;;;;;;;18.90;60.70;;;;;;5037951;28;1591;-69
2022/05/09 08:42:30;;;;;;;;;;;18.90;60.70;;;;;;5031568;28;1629;-69
2022/05/09 08:45:12;;;;;;;;;;;18.90;60.80;;;;;;5018851;28;880;-69
2022/05/09 08:47:38;;;;;;;;;;;18.90;60.80;;;;;;5035957;28;830;-68
2022/05/09 08:50:19;;;;;;;;;;;18.90;61.50;;;;;;5035720;28;1190;-69
2022/05/09 08:52:47;;;;;;;;;;;18.90;60.80;;;;;;5020895;28;1917;-68
2022/05/09 08:55:12;;;;;;;;;;;18.80;60.70;;;;;;5037847;28;1844;-68
2022/05/09 08:57:45;;;;;;;;;;;18.90;60.80;;;;;;5045689;28;1884;-68
2022/05/09 09:00:12;;;;;;;;;;;18.90;60.80;;;;;;5041282;28;1963;-69
2022/05/09 09:02:47;;;;;;;;;;;18.90;60.80;;;;;;5048153;28;1125;-69
2022/05/09 09:05:12;;;;;;;;;;;18.90;60.80;;;;;;5056514;28;996;-69
2022/05/09 09:07:53;;;;;;;;;;;18.90;60.80;;;;;;5075365;28;1038;-69
2022/05/09 09:10:24;;;;;;;;;;;18.90;60.80;;;;;;5075269;28;1279;-69
2022/05/09 09:12:59;;;;;;;;;;;18.90;60.80;;;;;;5075906;28;1972;-69
2022/05/09 09:15:25;;;;;;;;;;;18.90;60.80;;;;;;5057755;28;907;-69
2022/05/09 09:18:03;;;;;;;;;;;18.90;60.80;;;;;;5075394;28;1198;-69
2022/05/09 09:20:32;;;;;;;;;;;18.90;60.80;;;;;;5074925;28;1197;-69
2022/05/09 09:23:01;;;;;;;;;;;18.90;60.90;;;;;;5057251;28;1051;-69
2022/05/09 09:25:29;;;;;;;;;;;18.90;60.80;;;;;;5049959;28;1223;-69
2022/05/09 09:28:00;;;;;;;;;;;18.90;61.60;;;;;;5036518;28;1047;-69
2022/05/09 09:30:25;;;;;;;;;;;18.90;60.90;;;;;;5071494;22;1903;-70
2022/05/09 09:32:53;;;;;;;;;;;18.80;60.80;;;;;;5011082;28;1998;-71
2022/05/09 09:35:24;;;;;;;;;;;18.90;60.80;;;;;;5030780;28;1782;-70
2022/05/09 09:37:50;;;;;;;;;;;18.90;60.80;;;;;;5013491;28;1536;-70
2022/05/09 09:40:16;;;;;;;;;;;18.90;60.80;;;;;;5013011;28;1611;-70
2022/05/09 09:42:41;;;;;;;;;;;18.90;60.90;;;;;;5012814;28;2114;-70
2022/05/09 09:45:33;;;;;;;;;;;18.90;60.80;;;;;;5014825;28;1537;-70
2022/05/09 09:48:07;;;;;;;;;;;18.90;60.80;;;;;;5012886;28;1478;-71
2022/05/09 09:50:33;;;;;;;;;;;18.90;60.90;;;;;;5013717;28;1320;-70
2022/05/09 09:52:58;;;;;;;;;;;18.80;60.80;;;;;;5014338;28;1894;-70
2022/05/09 09:55:25;;;;;;;;;;;18.90;60.90;;;;;;5013475;28;833;-70
2022/05/09 09:57:51;;;;;;;;;;;18.90;60.90;;;;;;5014091;28;1190;-70
2022/05/09 10:00:19;;;;;;;;;;;18.90;60.90;;;;;;4996277;28;1285;-71
2022/05/09 10:02:44;;;;;;;;;;;18.90;60.90;;;;;;5013449;28;896;-70
2022/05/09 10:05:11;;;;;;;;;;;18.90;60.90;;;;;;5013768;28;2282;-70
2022/05/09 10:07:39;;;;;;;;;;;18.90;60.90;;;;;;5013658;28;1264;-71
2022/05/09 10:10:10;;;;;;;;;;;18.90;60.90;;;;;;5007439;28;1632;-71
2022/05/09 10:12:35;;;;;;;;;;;18.90;60.90;;;;;;5012199;28;1890;-71
2022/05/09 10:15:01;;;;;;;;;;;18.90;60.90;;;;;;5014083;28;1338;-71
2022/05/09 10:17:30;;;;;;;;;;;18.90;60.90;;;;;;5010771;28;2181;-72
2022/05/09 10:19:55;;;;;;;;;;;18.90;60.90;;;;;;5009434;28;1382;-71
2022/05/09 10:25:15;;;;;;;;;;;18.90;60.90;;;;;;5013402;28;636;-70
2022/05/09 10:27:41;;;;;;;;;;;18.90;60.90;;;;;;5013609;28;872;-70
2022/05/09 10:30:22;;;;;;;;;;;18.90;60.20;;;;;;5011699;28;1292;-70
2022/05/09 10:32:49;;;;;;;;;;;18.90;58.20;;;;;;5011801;28;2192;-69
2022/05/09 10:35:19;;;;;;;;;;;18.90;59.10;;;;;;5012324;28;953;-70
2022/05/09 10:37:53;;;;;;;;;;;19.00;57.10;;;;;;5012515;28;1266;-70
2022/05/09 10:40:25;;;;;;;;;;;19.00;55.40;;;;;;5012845;28;1229;-70
2022/05/09 10:43:08;;;;;;;;;;;19.00;53.90;;;;;;5012083;28;974;-69
2022/05/09 10:45:36;;;;;;;;;;;19.10;53.10;;;;;;5012294;28;1015;-70
2022/05/09 10:48:05;;;;;;;;;;;19.00;53.40;;;;;;5012871;28;1272;-69
2022/05/09 10:50:35;;;;;;;;;;;19.00;52.80;;;;;;5011044;28;1995;-68
2022/05/09 10:53:06;;;;;;;;;;;19.10;52.80;;;;;;5014902;28;1927;-69
2022/05/09 10:55:33;;;;;;;;;;;19.10;51.70;;;;;;5010953;28;2182;-69
2022/05/09 10:58:03;;;;;;;;;;;19.10;50.70;;;;;;5013211;28;1263;-69
2022/05/09 11:00:28;;;;;;;;;;;19.10;48.60;;;;;;5010959;28;1312;-68
2022/05/09 11:02:54;;;;;;;;;;;19.10;48.30;;;;;;5011284;28;2324;-68
2022/05/09 11:05:19;;;;;;;;;;;19.20;48.40;;;;;;5013119;28;1036;-66
2022/05/09 11:07:47;;;;;;;;;;;19.20;47.50;;;;;;5011468;28;1084;-67
2022/05/09 11:10:32;;;;;;;;;;;19.20;47.10;;;;;;5010477;28;1197;-67
2022/05/09 11:13:07;;;;;;;;;;;19.20;46.30;;;;;;4995670;28;1934;-69
2022/05/09 11:15:52;;;;;;;;;;;19.20;46.30;;;;;;5011996;28;809;-70
2022/05/09 11:18:36;;;;;;;;;;;19.20;45.70;;;;;;5008892;28;2408;-69
2022/05/09 11:21:11;;;;;;;;;;;19.20;45.60;;;;;;5009765;28;1356;-69
2022/05/09 11:23:51;;;;;;;;;;;19.20;46.20;;;;;;5011622;28;1377;-70
2022/05/09 11:26:28;;;;;;;;;;;19.30;45.80;;;;;;5010552;28;841;-72
2022/05/09 11:29:13;;;;;;;;;;;19.30;48.40;;;;;;5011968;28;1438;-71
2022/05/09 11:31:56;;;;;;;;;;;19.40;51.40;;;;;;5012230;28;1971;-71
2022/05/09 11:34:40;;;;;;;;;;;19.40;51.30;;;;;;5012650;28;1035;-71
2022/05/09 11:37:21;;;;;;;;;;;19.40;50.90;;;;;;5004485;28;1275;-70
2022/05/09 11:39:50;;;;;;;;;;;19.40;51.10;;;;;;5010860;28;1363;-71
2022/05/09 11:45:13;;;;;;;;;;;19.40;47.60;;;;;;5012917;28;639;-70
2022/05/09 11:47:48;;;;;;;;;;;19.40;46.50;;;;;;5012017;28;845;-70
2022/05/09 11:50:26;;;;;;;;;;;19.40;46.00;;;;;;5010436;28;1240;-70
2022/05/09 11:52:52;;;;;;;;;;;19.30;46.70;;;;;;5011362;28;1935;-70
2022/05/09 11:55:18;;;;;;;;;;;19.30;46.30;;;;;;4995342;28;1224;-71
2022/05/09 11:57:44;;;;;;;;;;;19.30;46.10;;;;;;5011358;28;1140;-71
2022/05/09 12:00:11;;;;;;;;;;;19.30;45.60;;;;;;5002662;28;1287;-72
2022/05/09 12:02:36;;;;;;;;;;;19.40;45.20;;;;;;5007919;28;1116;-72
2022/05/09 12:05:11;;;;;;;;;;;19.40;44.80;;;;;;5012340;28;865;-71
2022/05/09 12:07:40;;;;;;;;;;;19.40;44.60;;;;;;5012075;28;1244;-72
2022/05/09 12:10:11;;;;;;;;;;;19.40;45.60;;;;;;5012062;28;1316;-71
2022/05/09 12:12:37;;;;;;;;;;;19.40;45.40;;;;;;5014317;28;1902;-70
2022/05/09 12:15:09;;;;;;;;;;;19.40;45.80;;;;;;5016230;28;1007;-72
2022/05/09 12:17:41;;;;;;;;;;;19.40;45.80;;;;;;5014765;28;943;-72
2022/05/09 12:20:11;;;;;;;;;;;19.40;46.50;;;;;;5014059;28;1178;-71
2022/05/09 12:22:37;;;;;;;;;;;19.40;47.20;;;;;;5016192;28;839;-73
2022/05/09 12:25:05;;;;;;;;;;;19.30;47.80;;;;;;5015330;28;1023;-72
2022/05/09 12:27:41;;;;;;;;;;;19.30;47.70;;;;;;5016344;28;889;-73
2022/05/09 12:30:11;;;;;;;;;;;19.30;46.80;;;;;;4997206;28;2365;-73
2022/05/09 12:32:36;;;;;;;;;;;19.30;46.60;;;;;;5014474;28;1906;-73
2022/05/09 12:35:01;;;;;;;;;;;19.30;46.60;;;;;;4997063;28;2377;-73
2022/05/09 12:37:27;;;;;;;;;;;19.40;46.20;;;;;;4989806;28;1333;-71
2022/05/09 12:39:53;;;;;;;;;;;19.40;45.70;;;;;;5013568;28;1565;-70
2022/05/09 12:42:27;;;;;;;;;;;19.40;45.90;;;;;;5005187;28;1288;-71
2022/05/09 12:44:52;;;;;;;;;;;19.40;45.80;;;;;;5006773;28;1115;-71
2022/05/09 12:47:22;;;;;;;;;;;19.40;46.00;;;;;;5006413;28;1947;-70
2022/05/09 12:49:55;;;;;;;;;;;19.40;45.40;;;;;;4997713;28;1379;-69
2022/05/09 12:52:21;;;;;;;;;;;19.40;44.90;;;;;;5003803;28;1955;-69
2022/05/09 12:55:52;;;;;;;;;;;19.40;44.70;;;;;;5002812;28;1256;-68
2022/05/09 12:57:33;;;;;;;;;;;19.40;45.00;;;;;;5005835;28;1211;-68
2022/05/09 12:59:58;;;;;;;;;;;19.40;46.40;;;;;;5001149;28;1300;-68
2022/05/09 13:02:24;;;;;;;;;;;19.40;47.00;;;;;;4998476;28;1269;-72
2022/05/09 13:04:50;;;;;;;;;;;19.40;45.80;;;;;;4994477;28;1228;-67
2022/05/09 13:07:15;;;;;;;;;;;19.40;45.30;;;;;;5003601;28;1248;-71
2022/05/09 13:09:51;;;;;;;;;;;19.50;45.30;;;;;;5002904;28;1391;-69
2022/05/09 13:12:22;;;;;;;;;;;19.50;45.10;;;;;;5003932;28;1898;-71
2022/05/09 13:14:55;;;;;;;;;;;19.40;45.00;;;;;;4995961;28;806;-68
2022/05/09 13:17:29;;;;;;;;;;;19.50;45.00;;;;;;4994576;28;1023;-68
2022/05/09 13:19:55;;;;;;;;;;;19.40;44.90;;;;;;5012283;28;1256;-68
2022/05/09 13:22:31;;;;;;;;;;;19.50;44.90;;;;;;5014143;28;868;-68
2022/05/09 13:24:57;;;;;;;;;;;19.50;44.60;;;;;;5012988;28;1010;-68
2022/05/09 13:27:22;;;;;;;;;;;19.40;44.60;;;;;;5014969;28;1019;-68
2022/05/09 13:29:48;;;;;;;;;;;19.50;44.50;;;;;;5012795;28;1232;-68
2022/05/09 13:32:24;;;;;;;;;;;19.50;44.50;;;;;;4997457;28;1911;-68
2022/05/09 13:34:50;;;;;;;;;;;19.50;44.40;;;;;;5013507;28;858;-68
2022/05/09 13:37:24;;;;;;;;;;;19.50;45.50;;;;;;5015098;28;833;-70
2022/05/09 13:39:50;;;;;;;;;;;19.50;44.50;;;;;;5012778;28;1764;-68
2022/05/09 13:42:23;;;;;;;;;;;19.50;44.20;;;;;;5015024;28;1086;-68
2022/05/09 13:44:49;;;;;;;;;;;19.50;43.40;;;;;;5014488;28;814;-68
2022/05/09 13:47:14;;;;;;;;;;;19.50;43.50;;;;;;5013699;28;983;-68
2022/05/09 13:49:40;;;;;;;;;;;19.50;43.00;;;;;;5012213;28;1232;-71
2022/05/09 13:52:08;;;;;;;;;;;19.50;42.60;;;;;;5014842;28;1902;-68
2022/05/09 13:54:33;;;;;;;;;;;19.50;42.30;;;;;;5014669;28;853;-68
2022/05/09 13:57:12;;;;;;;;;;;19.50;41.40;;;;;;5008729;28;1408;-69
2022/05/09 13:59:38;;;;;;;;;;;19.50;40.90;;;;;;4993630;28;1198;-66
2022/05/09 14:02:04;;;;;;;;;;;19.50;40.80;;;;;;4993878;28;849;-66
2022/05/09 14:04:29;;;;;;;;;;;19.50;40.10;;;;;;4993688;28;810;-64
2022/05/09 14:06:54;;;;;;;;;;;19.50;40.00;;;;;;4994552;28;841;-67
2022/05/09 14:09:21;;;;;;;;;;;19.50;39.30;;;;;;4992789;28;1278;-69
2022/05/09 14:11:59;;;;;;;;;;;19.50;39.20;;;;;;4992518;28;1899;-68
2022/05/09 14:14:39;;;;;;;;;;;19.50;39.20;;;;;;4977234;28;1102;-68
2022/05/09 14:17:13;;;;;;;;;;;19.60;39.30;;;;;;4993407;28;845;-68
2022/05/09 14:19:38;;;;;;;;;;;19.50;39.40;;;;;;5011994;28;1357;-69
2022/05/09 14:22:07;;;;;;;;;;;19.50;39.40;;;;;;5012394;28;2050;-69
2022/05/09 14:24:33;;;;;;;;;;;19.50;39.40;;;;;;5013864;28;1139;-69
2022/05/09 14:29:50;;;;;;;;;;;19.50;39.10;;;;;;4991434;28;1385;-69
2022/05/09 14:32:34;;;;;;;;;;;19.50;38.30;;;;;;5001409;28;1906;-68
2022/05/09 14:35:00;;;;;;;;;;;19.50;37.80;;;;;;5003272;28;1264;-67
2022/05/09 14:37:26;;;;;;;;;;;19.50;37.80;;;;;;5002039;28;1236;-67
2022/05/09 14:39:58;;;;;;;;;;;19.50;37.70;;;;;;5004403;28;1339;-68
2022/05/09 14:42:23;;;;;;;;;;;19.50;38.50;;;;;;5003505;28;1186;-70
2022/05/09 14:45:05;;;;;;;;;;;19.40;38.70;;;;;;5004001;28;1465;-69
2022/05/09 14:47:31;;;;;;;;;;;19.50;38.70;;;;;;5002086;28;1344;-69
2022/05/09 14:50:07;;;;;;;;;;;19.50;38.80;;;;;;5002603;28;1440;-69
2022/05/09 14:52:51;;;;;;;;;;;19.40;41.90;;;;;;5003058;28;1958;-69
2022/05/09 14:58:15;;;;;;;;;;;19.40;43.70;;;;;;5008802;28;1155;-68
2022/05/09 15:00:42;;;;;;;;;;;19.40;44.60;;;;;;5004407;28;1359;-69